This is the latest recevied weather packets stored in our database for station/object BG4IKR-13. If no packets are shown the sender has not sent any weather packets the latest 10 day(s).
| Time | Temp. | Humidity | Pressure | Rain* | Wind** | Luminosity | Snow |
|---|---|---|---|---|---|---|---|
| 1778091941 | 23.89° C | 61% | 1009 hPa | - | - | - | - |
| 1778090905 | 23.89° C | 62% | 1009.1 hPa | - | - | - | - |
| 1778089869 | 24.44° C | 62% | 1009.2 hPa | - | - | - | - |
| 1778088762 | 24.44° C | 62% | 1009.1 hPa | - | - | - | - |
| 1778087724 | 24.44° C | 61% | 1009.2 hPa | - | - | - | - |
| 1778086686 | 25° C | 61% | 1008.6 hPa | - | - | - | - |
| 1778085639 | 25° C | 60% | 1009.2 hPa | - | - | - | - |
| 1778084492 | 25° C | 61% | 1009.4 hPa | - | - | - | - |
| 1778083465 | 25° C | 61% | 1009.2 hPa | - | - | - | - |
| 1778082330 | 25° C | 61% | 1009.3 hPa | - | - | - | - |
| 1778081303 | 25° C | 60% | 1008.7 hPa | - | - | - | - |
| 1778080041 | 25.56° C | 60% | 1008.3 hPa | - | - | - | - |
| 1778078914 | 25° C | 61% | 1008.3 hPa | - | - | - | - |
| 1778077883 | 25° C | 61% | 1008.2 hPa | - | - | - | - |
| 1778077819 | 25° C | 61% | 1008.2 hPa | - | - | - | - |
| 1778076773 | 25.56° C | 63% | 1007.9 hPa | - | - | - | - |
| 1778075743 | 26.11° C | 64% | 1007.5 hPa | - | - | - | - |
| 1778074714 | 26.11° C | 64% | 1007 hPa | - | - | - | - |
| 1778073683 | 26.11° C | 59% | 1005.7 hPa | - | - | - | - |
| 1778072650 | 26.67° C | 55% | 1004.5 hPa | - | - | - | - |
| 1778071622 | 26.67° C | 55% | 1004.5 hPa | - | - | - | - |
| 1778070515 | 26.67° C | 54% | 1004.3 hPa | - | - | - | - |
| 1778069415 | 26.67° C | 54% | 1004.1 hPa | - | - | - | - |
| 1778068376 | 26.67° C | 55% | 1003.9 hPa | - | - | - | - |
| 1778067326 | 26.67° C | 55% | 1003.7 hPa | - | - | - | - |
* Rain since midnight (hover to see other rain measurements)
** Current wind speed in m/s (hover to see current wind gust speed)